sensor_id;sensor_type;location;lat;lon;timestamp;P1;durP1;ratioP1;P2;durP2;ratioP2
20896;SDS011;10608;42.600;23.398;2023-05-10T00:01:20;105.53;;;101.00;;
20896;SDS011;10608;42.600;23.398;2023-05-10T00:03:46;119.30;;;114.17;;
20896;SDS011;10608;42.600;23.398;2023-05-10T00:06:11;94.37;;;90.37;;
20896;SDS011;10608;42.600;23.398;2023-05-10T00:08:37;92.20;;;88.33;;
20896;SDS011;10608;42.600;23.398;2023-05-10T00:11:02;109.40;;;104.73;;
20896;SDS011;10608;42.600;23.398;2023-05-10T00:13:27;109.37;;;104.77;;
20896;SDS011;10608;42.600;23.398;2023-05-10T00:15:52;114.87;;;109.97;;
20896;SDS011;10608;42.600;23.398;2023-05-10T00:18:18;98.10;;;93.83;;
20896;SDS011;10608;42.600;23.398;2023-05-10T00:20:43;97.57;;;93.27;;
20896;SDS011;10608;42.600;23.398;2023-05-10T00:23:10;99.43;;;95.20;;
20896;SDS011;10608;42.600;23.398;2023-05-10T00:25:36;101.83;;;97.37;;
20896;SDS011;10608;42.600;23.398;2023-05-10T00:28:01;96.70;;;92.50;;
20896;SDS011;10608;42.600;23.398;2023-05-10T00:30:26;105.13;;;100.57;;
20896;SDS011;10608;42.600;23.398;2023-05-10T00:32:52;185.13;;;176.70;;
20896;SDS011;10608;42.600;23.398;2023-05-10T00:35:17;98.53;;;94.30;;
20896;SDS011;10608;42.600;23.398;2023-05-10T00:37:42;98.60;;;94.30;;
20896;SDS011;10608;42.600;23.398;2023-05-10T00:40:08;115.57;;;110.37;;
20896;SDS011;10608;42.600;23.398;2023-05-10T00:42:33;125.67;;;120.10;;
20896;SDS011;10608;42.600;23.398;2023-05-10T00:44:58;121.47;;;116.07;;
20896;SDS011;10608;42.600;23.398;2023-05-10T00:47:23;120.73;;;115.27;;
20896;SDS011;10608;42.600;23.398;2023-05-10T00:49:49;117.67;;;112.40;;
20896;SDS011;10608;42.600;23.398;2023-05-10T00:52:14;118.63;;;113.30;;
20896;SDS011;10608;42.600;23.398;2023-05-10T00:54:40;111.40;;;106.40;;
20896;SDS011;10608;42.600;23.398;2023-05-10T00:57:05;113.10;;;108.07;;
20896;SDS011;10608;42.600;23.398;2023-05-10T00:59:30;122.63;;;117.33;;
20896;SDS011;10608;42.600;23.398;2023-05-10T01:01:56;140.10;;;133.77;;
20896;SDS011;10608;42.600;23.398;2023-05-10T01:04:22;93.90;;;89.63;;
20896;SDS011;10608;42.600;23.398;2023-05-10T01:06:50;87.50;;;83.83;;
20896;SDS011;10608;42.600;23.398;2023-05-10T01:09:15;88.03;;;84.30;;
20896;SDS011;10608;42.600;23.398;2023-05-10T01:11:41;97.47;;;93.20;;
20896;SDS011;10608;42.600;23.398;2023-05-10T01:14:06;121.10;;;115.83;;
20896;SDS011;10608;42.600;23.398;2023-05-10T01:16:33;101.20;;;96.77;;
20896;SDS011;10608;42.600;23.398;2023-05-10T01:19:01;106.37;;;101.80;;
20896;SDS011;10608;42.600;23.398;2023-05-10T01:37:15;91.07;;;87.17;;
20896;SDS011;10608;42.600;23.398;2023-05-10T01:39:47;83.83;;;80.27;;
20896;SDS011;10608;42.600;23.398;2023-05-10T01:42:16;91.27;;;87.37;;
20896;SDS011;10608;42.600;23.398;2023-05-10T01:47:10;75.93;;;72.63;;
20896;SDS011;10608;42.600;23.398;2023-05-10T01:49:45;81.63;;;78.20;;
20896;SDS011;10608;42.600;23.398;2023-05-10T01:52:13;79.03;;;75.73;;
20896;SDS011;10608;42.600;23.398;2023-05-10T01:54:41;78.90;;;75.63;;
20896;SDS011;10608;42.600;23.398;2023-05-10T01:57:07;82.80;;;79.27;;
20896;SDS011;10608;42.600;23.398;2023-05-10T01:59:35;81.90;;;78.50;;
20896;SDS011;10608;42.600;23.398;2023-05-10T02:02:02;78.27;;;74.97;;
20896;SDS011;10608;42.600;23.398;2023-05-10T02:04:27;70.83;;;67.80;;
20896;SDS011;10608;42.600;23.398;2023-05-10T02:06:53;54.97;;;52.67;;
20896;SDS011;10608;42.600;23.398;2023-05-10T02:09:18;67.40;;;64.53;;
20896;SDS011;10608;42.600;23.398;2023-05-10T02:11:45;71.77;;;68.67;;
20896;SDS011;10608;42.600;23.398;2023-05-10T02:14:10;56.57;;;54.17;;
20896;SDS011;10608;42.600;23.398;2023-05-10T02:16:36;163.47;;;156.03;;
20896;SDS011;10608;42.600;23.398;2023-05-10T02:19:02;53.20;;;51.00;;
20896;SDS011;10608;42.600;23.398;2023-05-10T02:21:27;135.00;;;128.57;;
20896;SDS011;10608;42.600;23.398;2023-05-10T02:23:53;76.37;;;73.03;;
20896;SDS011;10608;42.600;23.398;2023-05-10T02:26:19;51.67;;;49.47;;
20896;SDS011;10608;42.600;23.398;2023-05-10T02:28:46;51.97;;;49.83;;
20896;SDS011;10608;42.600;23.398;2023-05-10T02:31:11;42.03;;;40.30;;
20896;SDS011;10608;42.600;23.398;2023-05-10T02:33:38;46.90;;;44.93;;
20896;SDS011;10608;42.600;23.398;2023-05-10T02:36:04;31.70;;;30.07;;
20896;SDS011;10608;42.600;23.398;2023-05-10T02:38:30;41.23;;;39.50;;
20896;SDS011;10608;42.600;23.398;2023-05-10T02:40:56;36.00;;;34.53;;
20896;SDS011;10608;42.600;23.398;2023-05-10T02:43:22;40.97;;;39.27;;
20896;SDS011;10608;42.600;23.398;2023-05-10T02:45:48;48.07;;;45.87;;
20896;SDS011;10608;42.600;23.398;2023-05-10T02:48:13;37.30;;;35.80;;
20896;SDS011;10608;42.600;23.398;2023-05-10T02:50:38;37.00;;;35.43;;
20896;SDS011;10608;42.600;23.398;2023-05-10T02:53:09;33.13;;;31.67;;
20896;SDS011;10608;42.600;23.398;2023-05-10T02:55:36;33.50;;;32.13;;
20896;SDS011;10608;42.600;23.398;2023-05-10T02:58:03;43.00;;;41.17;;
20896;SDS011;10608;42.600;23.398;2023-05-10T03:00:28;44.93;;;43.00;;
20896;SDS011;10608;42.600;23.398;2023-05-10T03:02:53;55.80;;;53.50;;
20896;SDS011;10608;42.600;23.398;2023-05-10T03:05:19;57.83;;;54.70;;
20896;SDS011;10608;42.600;23.398;2023-05-10T03:07:45;50.93;;;48.87;;
20896;SDS011;10608;42.600;23.398;2023-05-10T03:10:10;57.77;;;55.33;;
20896;SDS011;10608;42.600;23.398;2023-05-10T03:20:08;42.73;;;40.93;;
20896;SDS011;10608;42.600;23.398;2023-05-10T03:22:38;41.47;;;39.73;;
20896;SDS011;10608;42.600;23.398;2023-05-10T03:25:06;50.57;;;48.47;;
20896;SDS011;10608;42.600;23.398;2023-05-10T03:27:33;43.97;;;42.17;;
20896;SDS011;10608;42.600;23.398;2023-05-10T03:29:59;42.43;;;40.67;;
20896;SDS011;10608;42.600;23.398;2023-05-10T03:32:25;44.70;;;42.80;;
20896;SDS011;10608;42.600;23.398;2023-05-10T03:34:50;48.37;;;46.33;;
20896;SDS011;10608;42.600;23.398;2023-05-10T03:37:15;45.13;;;43.20;;
20896;SDS011;10608;42.600;23.398;2023-05-10T03:39:40;46.77;;;44.87;;
20896;SDS011;10608;42.600;23.398;2023-05-10T03:42:06;46.57;;;44.57;;
20896;SDS011;10608;42.600;23.398;2023-05-10T03:44:31;51.73;;;49.53;;
20896;SDS011;10608;42.600;23.398;2023-05-10T03:46:58;50.00;;;47.93;;
20896;SDS011;10608;42.600;23.398;2023-05-10T03:49:23;52.33;;;50.13;;
20896;SDS011;10608;42.600;23.398;2023-05-10T03:51:48;52.50;;;50.30;;
20896;SDS011;10608;42.600;23.398;2023-05-10T03:54:14;59.10;;;56.57;;
20896;SDS011;10608;42.600;23.398;2023-05-10T03:56:40;60.53;;;57.93;;
20896;SDS011;10608;42.600;23.398;2023-05-10T03:59:06;55.37;;;53.03;;
20896;SDS011;10608;42.600;23.398;2023-05-10T04:01:34;49.13;;;47.00;;
20896;SDS011;10608;42.600;23.398;2023-05-10T04:03:59;41.50;;;39.77;;
20896;SDS011;10608;42.600;23.398;2023-05-10T04:06:25;42.67;;;40.83;;
20896;SDS011;10608;42.600;23.398;2023-05-10T04:08:50;41.60;;;39.83;;
20896;SDS011;10608;42.600;23.398;2023-05-10T04:11:15;40.53;;;38.83;;
20896;SDS011;10608;42.600;23.398;2023-05-10T04:13:40;43.00;;;41.20;;
20896;SDS011;10608;42.600;23.398;2023-05-10T04:16:06;49.00;;;46.87;;
20896;SDS011;10608;42.600;23.398;2023-05-10T04:18:31;46.07;;;44.13;;
20896;SDS011;10608;42.600;23.398;2023-05-10T04:20:57;45.87;;;43.87;;
20896;SDS011;10608;42.600;23.398;2023-05-10T04:23:22;45.60;;;43.63;;
20896;SDS011;10608;42.600;23.398;2023-05-10T04:25:47;46.57;;;44.57;;
20896;SDS011;10608;42.600;23.398;2023-05-10T04:28:12;40.73;;;39.03;;
20896;SDS011;10608;42.600;23.398;2023-05-10T04:30:38;42.83;;;41.03;;
20896;SDS011;10608;42.600;23.398;2023-05-10T04:33:03;41.03;;;39.33;;
20896;SDS011;10608;42.600;23.398;2023-05-10T04:35:29;44.70;;;42.90;;
20896;SDS011;10608;42.600;23.398;2023-05-10T04:37:54;50.93;;;48.83;;
20896;SDS011;10608;42.600;23.398;2023-05-10T04:40:19;53.07;;;50.77;;
20896;SDS011;10608;42.600;23.398;2023-05-10T04:42:45;53.77;;;51.53;;
20896;SDS011;10608;42.600;23.398;2023-05-10T04:45:11;48.33;;;46.33;;
20896;SDS011;10608;42.600;23.398;2023-05-10T04:47:36;57.47;;;55.07;;
20896;SDS011;10608;42.600;23.398;2023-05-10T04:50:02;58.70;;;56.20;;
20896;SDS011;10608;42.600;23.398;2023-05-10T04:52:27;60.67;;;58.03;;
20896;SDS011;10608;42.600;23.398;2023-05-10T04:54:53;79.07;;;75.70;;
20896;SDS011;10608;42.600;23.398;2023-05-10T04:57:18;48.43;;;46.43;;
20896;SDS011;10608;42.600;23.398;2023-05-10T04:59:43;53.60;;;51.30;;
20896;SDS011;10608;42.600;23.398;2023-05-10T05:02:08;62.67;;;60.03;;
20896;SDS011;10608;42.600;23.398;2023-05-10T05:04:34;66.40;;;63.63;;
20896;SDS011;10608;42.600;23.398;2023-05-10T05:06:59;115.83;;;110.57;;
20896;SDS011;10608;42.600;23.398;2023-05-10T05:09:24;60.47;;;57.90;;
20896;SDS011;10608;42.600;23.398;2023-05-10T05:11:49;53.67;;;51.43;;
20896;SDS011;10608;42.600;23.398;2023-05-10T05:14:14;52.53;;;50.30;;
20896;SDS011;10608;42.600;23.398;2023-05-10T05:16:40;68.93;;;65.97;;
20896;SDS011;10608;42.600;23.398;2023-05-10T05:19:05;71.27;;;68.17;;
20896;SDS011;10608;42.600;23.398;2023-05-10T05:21:30;66.20;;;63.40;;
20896;SDS011;10608;42.600;23.398;2023-05-10T05:23:57;56.10;;;53.73;;
20896;SDS011;10608;42.600;23.398;2023-05-10T05:26:22;49.30;;;47.20;;
20896;SDS011;10608;42.600;23.398;2023-05-10T05:28:47;60.13;;;57.53;;
20896;SDS011;10608;42.600;23.398;2023-05-10T05:31:13;71.17;;;68.00;;
20896;SDS011;10608;42.600;23.398;2023-05-10T05:33:39;64.77;;;61.93;;
20896;SDS011;10608;42.600;23.398;2023-05-10T05:36:04;64.43;;;61.77;;
20896;SDS011;10608;42.600;23.398;2023-05-10T05:38:30;58.03;;;55.57;;
20896;SDS011;10608;42.600;23.398;2023-05-10T05:40:55;65.73;;;62.70;;
20896;SDS011;10608;42.600;23.398;2023-05-10T05:43:21;65.20;;;62.47;;
20896;SDS011;10608;42.600;23.398;2023-05-10T05:45:46;63.50;;;60.87;;
20896;SDS011;10608;42.600;23.398;2023-05-10T05:48:11;67.47;;;64.60;;
20896;SDS011;10608;42.600;23.398;2023-05-10T05:50:36;66.37;;;63.60;;
20896;SDS011;10608;42.600;23.398;2023-05-10T05:53:02;49.43;;;47.37;;
20896;SDS011;10608;42.600;23.398;2023-05-10T05:55:27;55.43;;;53.10;;
20896;SDS011;10608;42.600;23.398;2023-05-10T05:57:52;45.93;;;44.00;;
20896;SDS011;10608;42.600;23.398;2023-05-10T06:00:18;52.20;;;49.87;;
20896;SDS011;10608;42.600;23.398;2023-05-10T06:02:43;47.47;;;45.50;;
20896;SDS011;10608;42.600;23.398;2023-05-10T06:05:09;51.23;;;49.10;;
20896;SDS011;10608;42.600;23.398;2023-05-10T06:07:34;50.90;;;48.80;;
20896;SDS011;10608;42.600;23.398;2023-05-10T06:09:59;50.77;;;48.67;;
20896;SDS011;10608;42.600;23.398;2023-05-10T06:12:25;50.63;;;48.53;;
20896;SDS011;10608;42.600;23.398;2023-05-10T06:14:50;56.20;;;53.80;;
20896;SDS011;10608;42.600;23.398;2023-05-10T06:17:15;57.43;;;55.03;;
20896;SDS011;10608;42.600;23.398;2023-05-10T06:19:40;64.77;;;62.07;;
20896;SDS011;10608;42.600;23.398;2023-05-10T06:22:05;62.10;;;59.47;;
20896;SDS011;10608;42.600;23.398;2023-05-10T06:24:31;62.00;;;59.37;;
20896;SDS011;10608;42.600;23.398;2023-05-10T06:26:56;61.10;;;58.57;;
20896;SDS011;10608;42.600;23.398;2023-05-10T06:29:21;48.53;;;46.47;;
20896;SDS011;10608;42.600;23.398;2023-05-10T06:31:46;49.50;;;47.37;;
20896;SDS011;10608;42.600;23.398;2023-05-10T06:34:12;45.80;;;43.90;;
20896;SDS011;10608;42.600;23.398;2023-05-10T06:36:38;57.17;;;54.73;;
20896;SDS011;10608;42.600;23.398;2023-05-10T06:39:04;66.77;;;63.87;;
20896;SDS011;10608;42.600;23.398;2023-05-10T06:41:29;51.87;;;49.67;;
20896;SDS011;10608;42.600;23.398;2023-05-10T06:43:54;65.20;;;62.47;;
20896;SDS011;10608;42.600;23.398;2023-05-10T06:46:19;91.87;;;87.87;;
20896;SDS011;10608;42.600;23.398;2023-05-10T06:48:45;90.10;;;86.20;;
20896;SDS011;10608;42.600;23.398;2023-05-10T06:51:10;70.87;;;67.87;;
20896;SDS011;10608;42.600;23.398;2023-05-10T06:53:35;67.80;;;64.85;;
20896;SDS011;10608;42.600;23.398;2023-05-10T06:56:01;67.37;;;64.50;;
20896;SDS011;10608;42.600;23.398;2023-05-10T06:58:28;69.77;;;66.77;;
20896;SDS011;10608;42.600;23.398;2023-05-10T07:00:53;99.50;;;94.97;;
20896;SDS011;10608;42.600;23.398;2023-05-10T07:03:18;61.27;;;58.53;;
20896;SDS011;10608;42.600;23.398;2023-05-10T07:05:43;52.63;;;50.33;;
20896;SDS011;10608;42.600;23.398;2023-05-10T07:08:09;70.43;;;67.33;;
20896;SDS011;10608;42.600;23.398;2023-05-10T07:10:34;79.50;;;76.10;;
20896;SDS011;10608;42.600;23.398;2023-05-10T07:12:59;85.90;;;82.17;;
20896;SDS011;10608;42.600;23.398;2023-05-10T07:15:26;97.07;;;92.37;;
20896;SDS011;10608;42.600;23.398;2023-05-10T07:17:51;80.97;;;77.50;;
20896;SDS011;10608;42.600;23.398;2023-05-10T07:20:17;76.43;;;73.03;;
20896;SDS011;10608;42.600;23.398;2023-05-10T07:22:42;64.57;;;61.87;;
20896;SDS011;10608;42.600;23.398;2023-05-10T07:25:07;72.87;;;69.77;;
20896;SDS011;10608;42.600;23.398;2023-05-10T07:27:32;75.50;;;72.30;;
20896;SDS011;10608;42.600;23.398;2023-05-10T07:29:58;79.70;;;76.13;;
20896;SDS011;10608;42.600;23.398;2023-05-10T07:32:23;68.33;;;65.43;;
20896;SDS011;10608;42.600;23.398;2023-05-10T07:34:48;69.43;;;66.43;;
20896;SDS011;10608;42.600;23.398;2023-05-10T07:37:14;64.90;;;62.13;;
20896;SDS011;10608;42.600;23.398;2023-05-10T07:39:39;66.37;;;63.57;;
20896;SDS011;10608;42.600;23.398;2023-05-10T07:42:04;70.77;;;67.67;;
20896;SDS011;10608;42.600;23.398;2023-05-10T07:44:30;89.50;;;85.43;;
20896;SDS011;10608;42.600;23.398;2023-05-10T07:46:55;79.57;;;76.03;;
20896;SDS011;10608;42.600;23.398;2023-05-10T07:49:21;90.57;;;86.60;;
20896;SDS011;10608;42.600;23.398;2023-05-10T07:51:46;66.30;;;63.50;;
20896;SDS011;10608;42.600;23.398;2023-05-10T07:54:12;58.70;;;56.27;;
20896;SDS011;10608;42.600;23.398;2023-05-10T07:56:37;126.53;;;120.63;;
20896;SDS011;10608;42.600;23.398;2023-05-10T07:59:03;56.97;;;54.50;;
20896;SDS011;10608;42.600;23.398;2023-05-10T08:01:32;55.77;;;53.37;;
20896;SDS011;10608;42.600;23.398;2023-05-10T08:03:58;73.87;;;70.67;;
20896;SDS011;10608;42.600;23.398;2023-05-10T08:06:23;86.37;;;82.50;;
20896;SDS011;10608;42.600;23.398;2023-05-10T08:08:48;69.70;;;66.70;;
20896;SDS011;10608;42.600;23.398;2023-05-10T08:11:18;69.27;;;66.23;;
20896;SDS011;10608;42.600;23.398;2023-05-10T08:13:44;71.93;;;68.73;;
20896;SDS011;10608;42.600;23.398;2023-05-10T08:16:10;67.40;;;64.43;;
20896;SDS011;10608;42.600;23.398;2023-05-10T08:18:35;67.47;;;64.43;;
20896;SDS011;10608;42.600;23.398;2023-05-10T08:21:00;69.90;;;66.73;;
20896;SDS011;10608;42.600;23.398;2023-05-10T08:23:25;77.37;;;73.93;;
20896;SDS011;10608;42.600;23.398;2023-05-10T08:25:51;150.23;;;143.33;;
20896;SDS011;10608;42.600;23.398;2023-05-10T08:28:16;66.43;;;63.57;;
20896;SDS011;10608;42.600;23.398;2023-05-10T08:30:41;56.40;;;53.93;;
20896;SDS011;10608;42.600;23.398;2023-05-10T08:33:06;73.07;;;69.77;;
20896;SDS011;10608;42.600;23.398;2023-05-10T08:35:32;82.33;;;78.70;;
20896;SDS011;10608;42.600;23.398;2023-05-10T08:37:58;106.10;;;101.37;;
20896;SDS011;10608;42.600;23.398;2023-05-10T08:40:23;109.37;;;104.40;;
20896;SDS011;10608;42.600;23.398;2023-05-10T08:43:10;90.47;;;86.47;;
20896;SDS011;10608;42.600;23.398;2023-05-10T08:45:41;82.40;;;78.73;;
20896;SDS011;10608;42.600;23.398;2023-05-10T08:48:08;83.20;;;79.37;;
20896;SDS011;10608;42.600;23.398;2023-05-10T08:50:35;80.40;;;76.77;;
20896;SDS011;10608;42.600;23.398;2023-05-10T08:53:00;89.27;;;85.27;;
20896;SDS011;10608;42.600;23.398;2023-05-10T08:55:28;103.70;;;98.90;;
20896;SDS011;10608;42.600;23.398;2023-05-10T08:57:54;81.57;;;77.83;;
20896;SDS011;10608;42.600;23.398;2023-05-10T09:00:19;84.83;;;81.20;;
20896;SDS011;10608;42.600;23.398;2023-05-10T09:02:45;53.70;;;51.37;;
20896;SDS011;10608;42.600;23.398;2023-05-10T09:05:13;72.70;;;69.20;;
20896;SDS011;10608;42.600;23.398;2023-05-10T09:07:40;99.37;;;94.73;;
20896;SDS011;10608;42.600;23.398;2023-05-10T09:10:06;56.67;;;54.17;;
20896;SDS011;10608;42.600;23.398;2023-05-10T09:12:31;61.63;;;58.93;;
20896;SDS011;10608;42.600;23.398;2023-05-10T09:14:57;65.57;;;62.67;;
20896;SDS011;10608;42.600;23.398;2023-05-10T09:17:25;61.00;;;58.23;;
20896;SDS011;10608;42.600;23.398;2023-05-10T09:19:56;91.10;;;86.73;;
20896;SDS011;10608;42.600;23.398;2023-05-10T09:22:21;71.87;;;68.77;;
20896;SDS011;10608;42.600;23.398;2023-05-10T09:24:47;65.17;;;61.87;;
20896;SDS011;10608;42.600;23.398;2023-05-10T09:27:12;59.30;;;56.73;;
20896;SDS011;10608;42.600;23.398;2023-05-10T09:29:43;65.30;;;62.43;;
20896;SDS011;10608;42.600;23.398;2023-05-10T09:32:09;60.87;;;58.27;;
20896;SDS011;10608;42.600;23.398;2023-05-10T09:34:34;62.23;;;59.60;;
20896;SDS011;10608;42.600;23.398;2023-05-10T09:37:05;55.53;;;53.17;;
20896;SDS011;10608;42.600;23.398;2023-05-10T09:39:33;49.23;;;47.07;;
20896;SDS011;10608;42.600;23.398;2023-05-10T09:41:59;42.93;;;41.03;;
20896;SDS011;10608;42.600;23.398;2023-05-10T09:44:26;49.50;;;47.43;;
20896;SDS011;10608;42.600;23.398;2023-05-10T09:46:51;36.73;;;35.23;;
20896;SDS011;10608;42.600;23.398;2023-05-10T09:49:18;43.17;;;41.33;;
20896;SDS011;10608;42.600;23.398;2023-05-10T09:51:43;33.63;;;32.23;;
20896;SDS011;10608;42.600;23.398;2023-05-10T09:54:09;36.60;;;35.10;;
20896;SDS011;10608;42.600;23.398;2023-05-10T09:56:36;44.27;;;42.37;;
20896;SDS011;10608;42.600;23.398;2023-05-10T09:59:04;35.83;;;34.33;;
20896;SDS011;10608;42.600;23.398;2023-05-10T10:01:29;62.67;;;59.97;;
20896;SDS011;10608;42.600;23.398;2023-05-10T10:03:55;35.20;;;33.70;;
20896;SDS011;10608;42.600;23.398;2023-05-10T10:06:22;35.97;;;34.47;;
20896;SDS011;10608;42.600;23.398;2023-05-10T10:08:48;43.67;;;41.83;;
20896;SDS011;10608;42.600;23.398;2023-05-10T10:11:13;51.50;;;49.30;;
20896;SDS011;10608;42.600;23.398;2023-05-10T10:13:38;36.67;;;35.10;;
20896;SDS011;10608;42.600;23.398;2023-05-10T10:16:03;33.90;;;32.50;;
20896;SDS011;10608;42.600;23.398;2023-05-10T10:18:30;42.00;;;40.17;;
20896;SDS011;10608;42.600;23.398;2023-05-10T10:20:55;57.83;;;55.33;;
20896;SDS011;10608;42.600;23.398;2023-05-10T10:23:21;45.67;;;43.73;;
20896;SDS011;10608;42.600;23.398;2023-05-10T10:25:46;50.83;;;48.73;;
20896;SDS011;10608;42.600;23.398;2023-05-10T10:28:24;55.90;;;53.43;;
20896;SDS011;10608;42.600;23.398;2023-05-10T10:30:51;57.70;;;55.23;;
20896;SDS011;10608;42.600;23.398;2023-05-10T10:35:46;58.03;;;55.50;;
20896;SDS011;10608;42.600;23.398;2023-05-10T10:38:12;51.47;;;49.27;;
20896;SDS011;10608;42.600;23.398;2023-05-10T10:40:38;50.10;;;47.97;;
20896;SDS011;10608;42.600;23.398;2023-05-10T10:46:09;42.00;;;40.03;;
20896;SDS011;10608;42.600;23.398;2023-05-10T10:48:33;29.70;;;28.43;;
20896;SDS011;10608;42.600;23.398;2023-05-10T10:50:58;36.03;;;34.53;;
20896;SDS011;10608;42.600;23.398;2023-05-10T10:53:25;40.27;;;38.50;;
20896;SDS011;10608;42.600;23.398;2023-05-10T10:55:51;37.90;;;36.30;;
20896;SDS011;10608;42.600;23.398;2023-05-10T10:58:30;38.37;;;36.80;;
20896;SDS011;10608;42.600;23.398;2023-05-10T11:03:38;34.53;;;32.87;;
20896;SDS011;10608;42.600;23.398;2023-05-10T11:06:04;29.43;;;28.20;;
20896;SDS011;10608;42.600;23.398;2023-05-10T11:08:30;30.93;;;29.63;;
20896;SDS011;10608;42.600;23.398;2023-05-10T11:13:34;24.23;;;23.23;;
20896;SDS011;10608;42.600;23.398;2023-05-10T11:19:06;27.90;;;26.73;;
20896;SDS011;10608;42.600;23.398;2023-05-10T11:21:32;26.57;;;25.47;;
20896;SDS011;10608;42.600;23.398;2023-05-10T11:23:58;27.83;;;26.70;;
20896;SDS011;10608;42.600;23.398;2023-05-10T11:26:25;27.13;;;25.97;;
20896;SDS011;10608;42.600;23.398;2023-05-10T11:28:51;30.33;;;29.10;;
20896;SDS011;10608;42.600;23.398;2023-05-10T11:31:17;36.33;;;34.83;;
20896;SDS011;10608;42.600;23.398;2023-05-10T11:33:46;34.57;;;33.17;;
20896;SDS011;10608;42.600;23.398;2023-05-10T11:36:13;27.90;;;26.80;;
20896;SDS011;10608;42.600;23.398;2023-05-10T11:38:39;26.53;;;25.43;;
20896;SDS011;10608;42.600;23.398;2023-05-10T11:41:04;22.80;;;21.83;;
20896;SDS011;10608;42.600;23.398;2023-05-10T11:43:29;26.07;;;25.00;;
20896;SDS011;10608;42.600;23.398;2023-05-10T11:45:55;21.30;;;20.47;;
20896;SDS011;10608;42.600;23.398;2023-05-10T11:48:21;25.77;;;24.77;;
20896;SDS011;10608;42.600;23.398;2023-05-10T11:50:48;34.53;;;33.03;;
20896;SDS011;10608;42.600;23.398;2023-05-10T11:53:14;31.67;;;30.30;;
20896;SDS011;10608;42.600;23.398;2023-05-10T11:55:39;29.57;;;28.37;;
20896;SDS011;10608;42.600;23.398;2023-05-10T11:58:04;26.40;;;25.27;;
20896;SDS011;10608;42.600;23.398;2023-05-10T12:00:30;29.20;;;27.97;;
20896;SDS011;10608;42.600;23.398;2023-05-10T12:02:55;42.83;;;40.97;;
20896;SDS011;10608;42.600;23.398;2023-05-10T12:05:21;23.47;;;22.53;;
20896;SDS011;10608;42.600;23.398;2023-05-10T12:07:46;30.93;;;29.67;;
20896;SDS011;10608;42.600;23.398;2023-05-10T12:10:12;28.70;;;27.53;;
20896;SDS011;10608;42.600;23.398;2023-05-10T12:12:45;32.97;;;31.60;;
20896;SDS011;10608;42.600;23.398;2023-05-10T12:15:19;31.37;;;30.07;;
20896;SDS011;10608;42.600;23.398;2023-05-10T12:17:45;41.97;;;40.17;;
20896;SDS011;10608;42.600;23.398;2023-05-10T12:20:14;55.03;;;52.70;;
20896;SDS011;10608;42.600;23.398;2023-05-10T12:22:40;45.93;;;43.93;;
20896;SDS011;10608;42.600;23.398;2023-05-10T12:25:06;40.07;;;38.40;;
20896;SDS011;10608;42.600;23.398;2023-05-10T12:27:32;51.77;;;49.57;;
20896;SDS011;10608;42.600;23.398;2023-05-10T12:29:59;26.40;;;25.30;;
20896;SDS011;10608;42.600;23.398;2023-05-10T12:32:36;32.47;;;31.10;;
20896;SDS011;10608;42.600;23.398;2023-05-10T12:35:03;26.57;;;25.20;;
20896;SDS011;10608;42.600;23.398;2023-05-10T12:37:28;26.47;;;25.37;;
20896;SDS011;10608;42.600;23.398;2023-05-10T12:39:54;28.03;;;26.93;;
20896;SDS011;10608;42.600;23.398;2023-05-10T12:42:19;27.43;;;26.27;;
20896;SDS011;10608;42.600;23.398;2023-05-10T12:44:44;33.53;;;32.17;;
20896;SDS011;10608;42.600;23.398;2023-05-10T12:47:10;20.07;;;19.07;;
20896;SDS011;10608;42.600;23.398;2023-05-10T12:49:35;34.47;;;32.97;;
20896;SDS011;10608;42.600;23.398;2023-05-10T12:52:01;35.03;;;33.57;;
20896;SDS011;10608;42.600;23.398;2023-05-10T12:54:26;39.37;;;37.77;;
20896;SDS011;10608;42.600;23.398;2023-05-10T12:56:51;28.37;;;27.20;;
20896;SDS011;10608;42.600;23.398;2023-05-10T12:59:16;19.40;;;18.60;;
20896;SDS011;10608;42.600;23.398;2023-05-10T13:01:42;22.33;;;21.33;;
20896;SDS011;10608;42.600;23.398;2023-05-10T13:04:07;34.23;;;32.83;;
20896;SDS011;10608;42.600;23.398;2023-05-10T13:06:32;22.77;;;21.67;;
20896;SDS011;10608;42.600;23.398;2023-05-10T13:08:57;18.87;;;18.07;;
20896;SDS011;10608;42.600;23.398;2023-05-10T13:11:22;20.23;;;19.23;;
20896;SDS011;10608;42.600;23.398;2023-05-10T13:13:48;17.40;;;16.70;;
20896;SDS011;10608;42.600;23.398;2023-05-10T13:16:13;17.47;;;16.77;;
20896;SDS011;10608;42.600;23.398;2023-05-10T13:18:38;19.33;;;18.53;;
20896;SDS011;10608;42.600;23.398;2023-05-10T13:21:04;21.83;;;20.93;;
20896;SDS011;10608;42.600;23.398;2023-05-10T13:23:30;20.73;;;19.90;;
20896;SDS011;10608;42.600;23.398;2023-05-10T13:25:55;18.77;;;17.97;;
20896;SDS011;10608;42.600;23.398;2023-05-10T13:28:21;28.87;;;27.67;;
20896;SDS011;10608;42.600;23.398;2023-05-10T13:30:46;18.27;;;17.43;;
20896;SDS011;10608;42.600;23.398;2023-05-10T13:33:11;24.20;;;23.20;;
20896;SDS011;10608;42.600;23.398;2023-05-10T13:35:36;19.70;;;18.70;;
20896;SDS011;10608;42.600;23.398;2023-05-10T13:38:02;20.03;;;19.23;;
20896;SDS011;10608;42.600;23.398;2023-05-10T13:40:27;19.97;;;19.17;;
20896;SDS011;10608;42.600;23.398;2023-05-10T13:42:53;21.20;;;20.40;;
20896;SDS011;10608;42.600;23.398;2023-05-10T13:45:18;20.70;;;19.90;;
20896;SDS011;10608;42.600;23.398;2023-05-10T13:47:43;18.83;;;18.03;;
20896;SDS011;10608;42.600;23.398;2023-05-10T13:50:09;19.20;;;18.40;;
20896;SDS011;10608;42.600;23.398;2023-05-10T13:52:34;20.17;;;19.37;;
20896;SDS011;10608;42.600;23.398;2023-05-10T13:55:00;22.53;;;21.43;;
20896;SDS011;10608;42.600;23.398;2023-05-10T13:57:25;23.57;;;22.60;;
20896;SDS011;10608;42.600;23.398;2023-05-10T13:59:51;27.13;;;26.03;;
20896;SDS011;10608;42.600;23.398;2023-05-10T14:02:16;26.43;;;25.33;;
20896;SDS011;10608;42.600;23.398;2023-05-10T14:04:41;20.73;;;19.83;;
20896;SDS011;10608;42.600;23.398;2023-05-10T14:07:06;16.43;;;15.73;;
20896;SDS011;10608;42.600;23.398;2023-05-10T14:09:32;14.93;;;14.33;;
20896;SDS011;10608;42.600;23.398;2023-05-10T14:11:57;19.10;;;18.30;;
20896;SDS011;10608;42.600;23.398;2023-05-10T14:14:22;16.93;;;16.23;;
20896;SDS011;10608;42.600;23.398;2023-05-10T14:16:48;22.03;;;21.13;;
20896;SDS011;10608;42.600;23.398;2023-05-10T14:19:13;17.33;;;16.63;;
20896;SDS011;10608;42.600;23.398;2023-05-10T14:21:38;17.17;;;16.47;;
20896;SDS011;10608;42.600;23.398;2023-05-10T14:24:03;19.03;;;18.23;;
20896;SDS011;10608;42.600;23.398;2023-05-10T14:26:29;19.73;;;18.93;;
20896;SDS011;10608;42.600;23.398;2023-05-10T14:28:54;20.50;;;19.67;;
20896;SDS011;10608;42.600;23.398;2023-05-10T14:31:19;20.40;;;19.60;;
20896;SDS011;10608;42.600;23.398;2023-05-10T14:33:50;18.07;;;17.37;;
20896;SDS011;10608;42.600;23.398;2023-05-10T14:36:15;17.40;;;16.70;;
20896;SDS011;10608;42.600;23.398;2023-05-10T14:38:40;19.00;;;18.10;;